UBC Old Aspen (OA) Site

Current climate data:

Measured at 07:30:00, 2017-06-25 (Local time)

 Air temperature        =   0.00 C 
 Relative humidity      =   0.00 % 
 Wind speed             =   1.87 m/s
 Wind direction         = 353.35  
 Barometric pressure    =   0.00 kPa 
 Precipitation (last 30 min) =   0.00 mm 
 Precipitation (24h totals ending at  4:00 AM today)  =   0.00 mm 
 Precipitation (24h totals ending at  7:30 AM today)  =   0.00 mm 
 Cumulative Precipitation (2017) =    0 mm 

Current Picture (Time stamp:UTC)  (Full size image)

Fire index data:

Year  Month  Day  Hour  Tair(C) RH(%) Wind(m/s) W_Dir(deg)  Rain(mm)   ffmc     dmc      dc     bui     isi     fwi     dsr     Rating
2017      5   26   13  -241.80    0.00    4.89     72.86      0.00     85.80    6.00   45.40    9.02    5.72    5.85    0.62       2  
2017      5   27   13  -241.80    0.00    5.20     88.18      0.00     85.85    6.00   47.30    9.11    6.09    6.25    0.70       2  
2017      5   28   13  -241.80    0.00    6.22     82.30      0.00     85.90    6.00   49.20    9.20    7.38    7.49    0.96       2  
2017      5   29   13  -241.80    0.00    4.80    103.81      0.00     85.95    6.00   51.10    9.28    5.74    5.96    0.64       2  
2017      5   30   13  -241.80    0.00    1.89    320.41      0.00     85.99    6.00   53.00    9.35    3.41    3.46    0.24       2  
2017      5   31   13  -241.80    0.00    2.82    308.88      0.00     86.04    6.00   54.90    9.42    4.06    4.23    0.35       2  
2017      6    1   13  -241.80    0.00    4.24    245.55      0.00     86.09    6.00   57.80    9.53    5.30    5.59    0.57       2  
2017      6    2   13  -241.80    0.00    0.00    285.00      0.00     86.14    6.00   60.70    9.62    2.47    2.33    0.12       2  
2017      6    3   13  -241.80    0.00    6.39     36.66      0.00     86.19    6.00   63.60    9.71    7.93    8.20    1.13       2  
2017      6    4   13  -241.80    0.00    3.37    233.80      0.00     86.24    6.00   66.50    9.79    4.61    4.94    0.46       2  
2017      6    5   13  -241.80    0.00    2.95    262.21      0.00     86.29    6.00   69.40    9.87    4.31    4.62    0.41       2  
2017      6    6   13  -241.80    0.00    3.90    108.78      0.00     86.34    6.00   72.30    9.94    5.15    5.56    0.57       2  
2017      6    7   13  -241.80    0.00    1.79    283.06      0.00     86.39    6.00   75.20   10.00    3.54    3.76    0.28       2  
2017      6    8   13  -241.80    0.00    3.56    243.07      0.00     86.44    6.00   78.10   10.07    4.92    5.35    0.53       2  
2017      6    9   13  -241.80    0.00    2.27    228.44      0.00     86.49    6.00   81.00   10.13    3.92    4.24    0.35       2  
2017      6   10   13  -241.80    0.00    2.63    143.15      0.00     86.54    6.00   83.90   10.18    4.21    4.60    0.40       2  
2017      6   11   13  -241.80    0.00    3.43     53.89      0.00     86.59    6.00   86.80   10.23    4.90    5.38    0.53       2  
2017      6   12   13  -241.80    0.00    2.36    293.61      0.00     86.64    6.00   89.70   10.28    4.07    4.45    0.38       2  
2017      6   13   13  -241.80    0.00    3.63    238.17      0.00     86.69    6.00   92.60   10.33    5.16    5.68    0.59       2  
2017      6   14   13  -241.80    0.00    4.65    146.97      0.00     86.74    6.00   95.50   10.37    6.26    6.84    0.82       2  
2017      6   15   13  -241.80    0.00    3.10     94.07      0.00     86.79    6.00   98.40   10.41    4.75    5.26    0.51       2  
2017      6   16   13  -241.80    0.00    0.14     18.07      0.00     86.84    6.00  101.30   10.45    2.80    2.92    0.18       2  
2017      6   17   13  -241.80    0.00    0.98    114.50      0.00     86.89    6.00  104.20   10.49    3.28    3.56    0.26       2  
2017      6   18   13  -241.80    0.00    1.85    147.63      0.00     86.94    6.00  107.10   10.53    3.87    4.28    0.36       2  
2017      6   19   13  -241.80    0.00    3.18     72.07      0.00     86.99    6.00  110.00   10.56    4.96    5.53    0.56       2  
2017      6   20   13  -241.80    0.00    3.15    282.20      0.00     87.04    6.00  112.90   10.59    4.96    5.55    0.56       2  
2017      6   21   13  -241.80    0.00    4.87     18.80      0.00     87.09    6.00  115.80   10.62    6.84    7.51    0.96       2  
2017      6   22   13  -241.80    0.00    6.48     81.33      0.00     87.14    6.00  118.70   10.65    9.22    9.74    1.53       2  
2017      6   23   13  -241.80    0.00    3.24     96.35      0.00     87.19    6.00  121.60   10.68    5.16    5.79    0.61       2  
2017      6   24   13  -241.80    0.00    2.26    114.59      0.00     87.24    6.00  124.50   10.71    4.35    4.89    0.45       2  

(c) 2017 Biomet Group, University of British Columbia, Canada